createdAt,value
2023-03-12T00:02:11.937Z,1.40
2023-03-12T00:04:39.793Z,1.40
2023-03-12T00:07:08.838Z,1.40
2023-03-12T00:09:37.513Z,1.90
2023-03-12T00:12:07.441Z,1.80
2023-03-12T00:14:35.245Z,1.60
2023-03-12T00:17:03.064Z,1.70
2023-03-12T00:19:30.909Z,1.70
2023-03-12T00:21:58.732Z,1.60
2023-03-12T00:24:26.598Z,1.60
2023-03-12T00:26:54.411Z,1.40
2023-03-12T00:29:23.575Z,1.30
2023-03-12T00:31:51.797Z,1.30
2023-03-12T00:34:19.728Z,1.30
2023-03-12T00:36:47.550Z,1.10
2023-03-12T00:39:15.379Z,1.20
2023-03-12T00:41:43.188Z,1.10
2023-03-12T00:44:11.021Z,1.20
2023-03-12T00:46:40.277Z,1.20
2023-03-12T00:49:08.534Z,1.10
2023-03-12T00:51:36.350Z,1.00
2023-03-12T00:54:04.274Z,1.00
2023-03-12T00:56:32.317Z,1.10
2023-03-12T00:59:00.185Z,1.10
2023-03-12T01:01:28.038Z,1.10
2023-03-12T01:03:58.821Z,1.00
2023-03-12T01:06:27.147Z,1.10
2023-03-12T01:08:55.400Z,1.00
2023-03-12T01:11:23.686Z,0.80
2023-03-12T01:13:51.520Z,0.90
2023-03-12T01:16:19.406Z,0.80
2023-03-12T01:18:47.248Z,0.80
2023-03-12T01:21:16.402Z,0.80
2023-03-12T01:23:44.422Z,0.90
2023-03-12T01:26:12.250Z,1.00
2023-03-12T01:28:40.088Z,1.00
2023-03-12T01:31:08.761Z,1.10
2023-03-12T01:33:36.669Z,1.20
2023-03-12T01:36:04.861Z,1.30
2023-03-12T01:38:34.087Z,1.20
2023-03-12T01:41:01.904Z,1.20
2023-03-12T01:43:30.944Z,1.30
2023-03-12T01:46:22.358Z,1.40
2023-03-12T01:48:52.635Z,1.40
2023-03-12T01:51:20.518Z,1.40
2023-03-12T01:53:51.130Z,1.30
2023-03-12T01:56:19.579Z,1.40
2023-03-12T01:58:50.350Z,1.40
2023-03-12T02:01:18.265Z,1.50
2023-03-12T02:03:46.313Z,1.50
2023-03-12T02:06:15.749Z,1.50
2023-03-12T02:08:44.459Z,1.50
2023-03-12T02:11:13.638Z,1.50
2023-03-12T02:13:41.474Z,1.50
2023-03-12T02:16:09.851Z,1.60
2023-03-12T02:18:37.790Z,1.70
2023-03-12T02:21:09.351Z,1.80
2023-03-12T02:23:39.454Z,1.80
2023-03-12T02:26:08.775Z,1.80
2023-03-12T02:28:42.539Z,1.80
2023-03-12T02:31:11.023Z,1.80
2023-03-12T02:33:38.930Z,1.70
2023-03-12T02:36:07.178Z,1.80
2023-03-12T02:38:42.148Z,1.70
2023-03-12T02:41:14.678Z,1.70
2023-03-12T02:43:43.492Z,1.70
2023-03-12T02:46:11.364Z,1.70
2023-03-12T02:48:39.264Z,1.70
2023-03-12T02:51:07.218Z,1.70
2023-03-12T02:53:35.051Z,1.70
2023-03-12T02:56:03.019Z,1.70
2023-03-12T02:58:32.265Z,1.70
2023-03-12T03:01:00.210Z,1.70
2023-03-12T03:03:28.202Z,1.70
2023-03-12T03:05:56.059Z,1.80
2023-03-12T03:08:23.963Z,1.80
2023-03-12T03:10:52.600Z,1.70
2023-03-12T03:13:20.478Z,1.70
2023-03-12T03:15:49.701Z,1.70
2023-03-12T03:18:17.589Z,1.70
2023-03-12T03:20:45.490Z,1.70
2023-03-12T03:23:13.345Z,1.70
2023-03-12T03:25:41.254Z,1.70
2023-03-12T03:28:09.108Z,1.70
2023-03-12T03:30:36.982Z,1.80
2023-03-12T03:36:06.374Z,1.90
2023-03-12T03:38:34.656Z,2.00
2023-03-12T03:41:02.619Z,2.00
2023-03-12T03:43:30.506Z,1.90
2023-03-12T03:45:58.779Z,1.90
2023-03-12T03:48:27.994Z,2.00
2023-03-12T03:50:55.845Z,1.90
2023-03-12T03:53:23.660Z,1.90
2023-03-12T03:55:51.489Z,2.00
2023-03-12T03:58:19.293Z,1.90
2023-03-12T04:00:47.126Z,1.90
2023-03-12T04:03:15.075Z,1.90
2023-03-12T04:05:45.211Z,1.80
2023-03-12T04:08:13.299Z,1.80
2023-03-12T04:10:41.139Z,1.80
2023-03-12T04:13:08.951Z,1.80
2023-03-12T04:15:36.783Z,1.90
2023-03-12T04:18:04.703Z,1.90
2023-03-12T04:20:32.575Z,1.80
2023-03-12T04:23:01.743Z,1.80
2023-03-12T04:25:29.576Z,1.80
2023-03-12T04:27:57.435Z,1.80
2023-03-12T04:30:25.283Z,1.80
2023-03-12T04:32:53.197Z,1.70
2023-03-12T04:35:21.101Z,1.80
2023-03-12T04:37:50.192Z,1.70
2023-03-12T04:40:19.990Z,1.70
2023-03-12T04:42:48.482Z,1.60
2023-03-12T04:45:16.319Z,1.60
2023-03-12T04:47:44.198Z,1.60
2023-03-12T04:50:12.842Z,1.60
2023-03-12T04:52:40.731Z,1.60
2023-03-12T04:55:09.643Z,1.60
2023-03-12T04:57:38.865Z,1.70
2023-03-12T05:00:13.039Z,1.70
2023-03-12T05:02:41.097Z,1.70
2023-03-12T05:05:09.588Z,1.80
2023-03-12T05:07:37.471Z,1.80
2023-03-12T05:10:05.863Z,1.70
2023-03-12T05:12:33.722Z,1.70
2023-03-12T05:15:02.888Z,1.60
2023-03-12T05:17:30.738Z,1.60
2023-03-12T05:19:58.632Z,1.70
2023-03-12T05:22:26.548Z,1.70
2023-03-12T05:24:54.372Z,1.60
2023-03-12T05:27:22.213Z,1.70
2023-03-12T05:29:50.035Z,1.60
2023-03-12T05:32:19.329Z,1.70
2023-03-12T05:34:47.201Z,1.70
2023-03-12T05:37:15.032Z,1.70
2023-03-12T05:39:46.843Z,1.70
2023-03-12T05:42:14.950Z,1.70
2023-03-12T05:44:42.915Z,1.60
2023-03-12T05:47:10.752Z,1.60
2023-03-12T05:49:39.955Z,1.60
2023-03-12T05:52:08.073Z,1.60
2023-03-12T05:54:35.946Z,1.60
2023-03-12T05:57:04.112Z,1.50
2023-03-12T05:59:31.948Z,1.60
2023-03-12T06:01:59.863Z,1.60
2023-03-12T06:04:27.826Z,1.60
2023-03-12T06:06:57.010Z,1.60
2023-03-12T06:09:24.835Z,1.60
2023-03-12T06:11:52.668Z,1.60
2023-03-12T06:14:20.537Z,1.60
2023-03-12T06:16:48.494Z,1.60
2023-03-12T06:19:16.357Z,1.60
2023-03-12T06:21:44.335Z,1.70
2023-03-12T06:24:13.561Z,1.60
2023-03-12T06:26:41.536Z,1.60
2023-03-12T06:29:09.378Z,1.70
2023-03-12T06:31:38.879Z,1.70
2023-03-12T06:34:07.062Z,1.70
2023-03-12T06:36:34.966Z,1.70
2023-03-12T06:39:06.148Z,1.70
2023-03-12T06:41:35.348Z,1.70
2023-03-12T06:44:05.960Z,1.80
2023-03-12T06:46:33.957Z,1.80
2023-03-12T06:49:01.792Z,1.80
2023-03-12T06:51:29.727Z,1.80
2023-03-12T06:53:57.577Z,1.80
2023-03-12T06:56:25.419Z,1.80
2023-03-12T06:58:54.663Z,1.80
2023-03-12T07:01:22.515Z,1.80
2023-03-12T07:03:50.352Z,1.90
2023-03-12T07:06:19.237Z,1.90
2023-03-12T07:08:47.086Z,1.90
2023-03-12T07:11:15.161Z,1.90
2023-03-12T07:13:43.151Z,1.90
2023-03-12T07:16:12.401Z,1.90
2023-03-12T07:18:40.350Z,1.90
2023-03-12T07:21:08.168Z,2.00
2023-03-12T07:23:36.089Z,1.90
2023-03-12T07:26:06.396Z,1.90
2023-03-12T07:28:34.351Z,1.90
2023-03-12T07:31:02.815Z,2.00
2023-03-12T07:33:32.202Z,1.80
2023-03-12T07:36:00.250Z,1.80
2023-03-12T07:38:28.267Z,1.90
2023-03-12T07:40:56.749Z,1.90
2023-03-12T07:43:24.758Z,2.00
2023-03-12T07:45:52.782Z,2.10
2023-03-12T07:48:20.780Z,2.20
2023-03-12T07:50:49.996Z,2.10
2023-03-12T07:53:17.831Z,2.00
2023-03-12T07:55:46.298Z,2.10
2023-03-12T07:58:14.552Z,2.10
2023-03-12T08:00:42.498Z,2.20
2023-03-12T08:03:10.464Z,2.10
2023-03-12T08:05:38.499Z,2.20
2023-03-12T08:08:08.258Z,2.10
2023-03-12T08:10:36.291Z,2.30
2023-03-12T08:13:04.212Z,2.30
2023-03-12T08:15:32.045Z,2.20
2023-03-12T08:18:01.403Z,2.20
2023-03-12T08:20:29.354Z,2.80
2023-03-12T08:22:57.217Z,2.90
2023-03-12T08:25:26.398Z,2.80
2023-03-12T08:27:54.234Z,2.70
2023-03-12T08:30:22.264Z,2.60
2023-03-12T08:32:50.110Z,2.50
2023-03-12T08:35:18.085Z,2.60
2023-03-12T08:37:45.935Z,2.60
2023-03-12T08:40:14.411Z,2.60
2023-03-12T08:42:43.984Z,2.60
2023-03-12T08:45:12.587Z,2.50
2023-03-12T08:47:41.619Z,2.50
2023-03-12T08:50:10.714Z,2.30
2023-03-12T08:52:38.599Z,2.30
2023-03-12T08:55:07.048Z,2.40
2023-03-12T08:57:34.924Z,2.40
2023-03-12T09:00:05.969Z,2.50
2023-03-12T09:02:33.933Z,2.80
2023-03-12T09:05:01.857Z,2.80
2023-03-12T09:07:29.719Z,2.80
2023-03-12T09:09:57.614Z,2.90
2023-03-12T09:12:25.484Z,3.00
2023-03-12T09:15:09.007Z,3.00
2023-03-12T09:17:38.773Z,3.00
2023-03-12T09:20:08.297Z,3.10
2023-03-12T09:22:37.135Z,3.30
2023-03-12T09:25:05.276Z,3.20
2023-03-12T09:27:37.176Z,3.20
2023-03-12T09:30:06.601Z,3.80
2023-03-12T09:32:34.527Z,4.80
2023-03-12T09:35:03.904Z,4.70
2023-03-12T09:37:32.581Z,4.50
2023-03-12T09:40:00.402Z,4.20
2023-03-12T09:42:31.399Z,4.30
2023-03-12T09:44:59.291Z,4.00
2023-03-12T09:47:29.215Z,3.90
2023-03-12T09:49:58.038Z,4.00
2023-03-12T09:52:29.558Z,4.00
2023-03-12T09:55:00.322Z,4.00
2023-03-12T09:57:28.982Z,3.80
2023-03-12T09:59:56.931Z,3.70
2023-03-12T10:02:40.006Z,3.90
2023-03-12T10:05:08.324Z,3.90
2023-03-12T10:07:38.950Z,3.90
2023-03-12T10:10:21.656Z,3.90
2023-03-12T10:12:59.636Z,3.90
2023-03-12T10:15:33.369Z,3.90
2023-03-12T10:18:08.889Z,4.00
2023-03-12T10:20:53.843Z,4.10
2023-03-12T10:23:31.936Z,4.30
2023-03-12T10:26:01.067Z,4.30
2023-03-12T10:28:32.122Z,4.30
2023-03-12T10:31:02.517Z,4.30
2023-03-12T10:33:39.968Z,4.40
2023-03-12T10:36:13.553Z,4.60
2023-03-12T10:38:42.748Z,5.00
2023-03-12T10:41:15.711Z,5.20
2023-03-12T10:43:43.537Z,5.10
2023-03-12T10:46:27.513Z,4.90
2023-03-12T10:49:28.980Z,4.80
2023-03-12T10:51:58.440Z,4.90
2023-03-12T10:54:34.013Z,4.90
2023-03-12T10:57:01.920Z,4.80
2023-03-12T10:59:31.718Z,4.80
2023-03-12T11:02:00.015Z,4.80
2023-03-12T11:04:30.428Z,5.00
2023-03-12T11:07:20.556Z,5.10
2023-03-12T11:10:05.471Z,5.10
2023-03-12T11:12:35.095Z,5.30
2023-03-12T11:15:18.604Z,5.30
2023-03-12T11:17:46.453Z,5.60
2023-03-12T11:20:26.885Z,5.80
2023-03-12T11:22:54.782Z,5.90
2023-03-12T11:25:25.108Z,5.80
2023-03-12T11:27:54.650Z,5.90
2023-03-12T11:30:25.068Z,6.00
2023-03-12T11:32:53.027Z,6.20
2023-03-12T11:35:23.984Z,6.40
2023-03-12T11:37:57.066Z,6.60
2023-03-12T11:40:36.743Z,6.70
2023-03-12T11:43:36.237Z,6.70
2023-03-12T11:46:17.871Z,6.70
2023-03-12T11:48:50.907Z,6.70
2023-03-12T11:51:23.991Z,6.70
2023-03-12T11:54:10.981Z,6.80
2023-03-12T11:56:40.587Z,6.90
2023-03-12T11:59:20.806Z,6.90
2023-03-12T12:01:56.175Z,7.10
2023-03-12T12:04:58.475Z,6.90
2023-03-12T12:07:35.475Z,7.10
2023-03-12T12:10:04.581Z,7.20
2023-03-12T12:12:44.834Z,7.20
2023-03-12T12:15:16.424Z,7.20
2023-03-12T12:17:52.728Z,7.30
2023-03-12T12:20:22.932Z,7.30
2023-03-12T12:22:57.902Z,7.40
2023-03-12T12:25:29.908Z,7.40
2023-03-12T12:28:20.427Z,7.40
2023-03-12T12:30:54.976Z,7.40
2023-03-12T12:33:30.696Z,7.40
2023-03-12T12:35:58.538Z,7.40
2023-03-12T12:38:30.299Z,7.50
2023-03-12T12:41:01.142Z,7.60
2023-03-12T12:43:33.333Z,7.70
2023-03-12T12:46:03.191Z,7.60
2023-03-12T12:48:33.766Z,7.60
2023-03-12T12:51:02.101Z,7.70
2023-03-12T12:53:32.534Z,7.70
2023-03-12T12:56:03.921Z,7.80
2023-03-12T12:58:47.705Z,7.90
2023-03-12T13:01:15.788Z,8.00
2023-03-12T13:03:43.716Z,8.10
2023-03-12T13:06:11.867Z,8.00
2023-03-12T13:09:16.126Z,8.10
2023-03-12T13:11:46.201Z,8.10
2023-03-12T13:14:19.872Z,8.20
2023-03-12T13:16:47.815Z,8.20
2023-03-12T13:19:25.125Z,8.30
2023-03-12T13:21:59.425Z,8.40
2023-03-12T13:24:30.255Z,8.30
2023-03-12T13:27:00.258Z,8.40
2023-03-12T13:29:39.723Z,8.40
2023-03-12T13:32:10.060Z,8.40
2023-03-12T13:34:47.023Z,8.30
2023-03-12T13:37:48.602Z,8.30
2023-03-12T13:40:51.056Z,8.40
2023-03-12T13:43:33.264Z,8.40
2023-03-12T13:46:04.966Z,8.40
2023-03-12T13:48:34.512Z,8.50
2023-03-12T13:51:03.531Z,8.40
2023-03-12T13:53:34.490Z,8.40
2023-03-12T13:56:03.590Z,8.40
2023-03-12T13:58:31.722Z,8.40
2023-03-12T14:01:03.844Z,8.40
2023-03-12T14:03:32.556Z,8.30
2023-03-12T14:06:01.868Z,8.30
2023-03-12T14:08:44.493Z,8.30
2023-03-12T14:11:34.462Z,8.30
2023-03-12T14:14:24.787Z,8.30
2023-03-12T14:16:54.789Z,8.30
2023-03-12T14:19:24.736Z,8.20
2023-03-12T14:21:52.673Z,8.20
2023-03-12T14:24:24.968Z,8.20
2023-03-12T14:26:52.872Z,8.20
2023-03-12T14:29:21.902Z,8.20
2023-03-12T14:31:49.759Z,8.20
2023-03-12T14:34:20.681Z,8.20
2023-03-12T14:36:50.313Z,8.10
2023-03-12T14:39:23.171Z,8.10
2023-03-12T14:41:52.577Z,8.10
2023-03-12T14:44:22.901Z,8.10
2023-03-12T14:46:57.180Z,8.00
2023-03-12T14:49:26.434Z,8.10
2023-03-12T14:51:54.852Z,8.20
2023-03-12T14:54:24.337Z,8.30
2023-03-12T14:56:52.352Z,8.20
2023-03-12T14:59:29.180Z,8.30
2023-03-12T15:02:01.898Z,8.40
2023-03-12T15:04:31.253Z,8.50
2023-03-12T15:07:00.920Z,8.50
2023-03-12T15:09:29.904Z,8.50
2023-03-12T15:11:58.713Z,8.40
2023-03-12T15:14:26.833Z,8.40
2023-03-12T15:16:54.679Z,8.50
2023-03-12T15:19:25.078Z,8.50
2023-03-12T15:21:54.387Z,8.50
2023-03-12T15:24:22.240Z,8.50
2023-03-12T15:26:50.087Z,8.60
2023-03-12T15:29:26.843Z,8.60
2023-03-12T15:31:55.777Z,8.70
2023-03-12T15:34:32.274Z,8.80
2023-03-12T15:37:02.026Z,8.90
2023-03-12T15:39:31.354Z,8.80
2023-03-12T15:42:01.809Z,8.70
2023-03-12T15:44:30.675Z,8.80
2023-03-12T15:47:04.919Z,8.70
2023-03-12T15:49:33.964Z,8.70
2023-03-12T15:52:05.718Z,8.60
2023-03-12T15:54:33.627Z,8.60
2023-03-12T15:57:21.408Z,8.60
2023-03-12T16:00:13.616Z,8.60
2023-03-12T16:02:47.644Z,8.80
2023-03-12T16:05:15.718Z,8.80
2023-03-12T16:07:44.966Z,8.80
2023-03-12T16:10:14.430Z,8.70
2023-03-12T16:12:42.504Z,8.70
2023-03-12T16:15:14.652Z,8.70
2023-03-12T16:17:42.838Z,8.60
2023-03-12T16:20:13.188Z,8.60
2023-03-12T16:22:41.313Z,8.60
2023-03-12T16:25:12.069Z,8.60
2023-03-12T16:27:42.261Z,8.60
2023-03-12T16:30:15.214Z,8.50
2023-03-12T16:32:43.236Z,8.60
2023-03-12T16:35:14.516Z,8.60
2023-03-12T16:37:42.441Z,8.60
2023-03-12T16:40:14.523Z,8.50
2023-03-12T16:42:45.522Z,8.50
2023-03-12T16:45:14.791Z,8.60
2023-03-12T16:47:42.954Z,8.50
2023-03-12T16:50:15.161Z,8.50
2023-03-12T16:52:43.124Z,8.50
2023-03-12T16:55:12.473Z,8.50
2023-03-12T16:57:41.392Z,8.40
2023-03-12T17:00:13.184Z,8.40
2023-03-12T17:02:41.285Z,8.40
2023-03-12T17:05:09.708Z,8.40
2023-03-12T17:07:37.993Z,8.30
2023-03-12T17:10:06.958Z,8.30
2023-03-12T17:12:37.951Z,8.30
2023-03-12T17:15:07.505Z,8.30
2023-03-12T17:17:35.565Z,8.30
2023-03-12T17:20:07.873Z,8.30
2023-03-12T17:22:35.830Z,8.20
2023-03-12T17:25:03.837Z,8.20
2023-03-12T17:27:31.891Z,8.20
2023-03-12T17:30:01.174Z,8.10
2023-03-12T17:32:30.916Z,8.10
2023-03-12T17:35:03.087Z,8.00
2023-03-12T17:37:31.075Z,8.00
2023-03-12T17:40:01.567Z,8.00
2023-03-12T17:42:31.396Z,7.90
2023-03-12T17:44:59.350Z,7.90
2023-03-12T17:47:30.835Z,7.90
2023-03-12T17:49:58.932Z,7.80
2023-03-12T17:52:26.949Z,7.80
2023-03-12T17:54:55.015Z,7.80
2023-03-12T17:57:24.962Z,7.70
2023-03-12T17:59:52.902Z,7.70
2023-03-12T18:02:21.440Z,7.60
2023-03-12T18:04:50.739Z,7.60
2023-03-12T18:07:18.668Z,7.40
2023-03-12T18:09:46.742Z,7.30
2023-03-12T18:12:14.687Z,7.30
2023-03-12T18:14:42.608Z,7.30
2023-03-12T18:17:10.498Z,7.20
2023-03-12T18:19:38.590Z,7.10
2023-03-12T18:22:08.218Z,7.10
2023-03-12T18:24:36.283Z,7.10
2023-03-12T18:27:04.257Z,7.20
2023-03-12T18:29:34.185Z,7.10
2023-03-12T18:32:02.121Z,6.90
2023-03-12T18:34:30.103Z,6.80
2023-03-12T18:36:57.997Z,6.70
2023-03-12T18:39:27.380Z,6.60
2023-03-12T18:41:56.006Z,6.50
2023-03-12T18:44:23.991Z,6.50
2023-03-12T18:46:51.983Z,6.50
2023-03-12T18:49:20.099Z,6.40
2023-03-12T18:51:48.306Z,6.40
2023-03-12T18:54:16.381Z,6.30
2023-03-12T18:56:45.635Z,6.30
2023-03-12T18:59:14.677Z,6.30
2023-03-12T19:01:42.626Z,6.20
2023-03-12T19:04:10.947Z,6.20
2023-03-12T19:06:50.066Z,6.20
2023-03-12T19:09:19.344Z,6.30
2023-03-12T19:11:49.243Z,6.10
2023-03-12T19:14:17.127Z,6.10
2023-03-12T19:16:45.083Z,6.10
2023-03-12T19:19:12.993Z,6.10
2023-03-12T19:21:41.002Z,6.20
2023-03-12T19:24:09.424Z,6.10
2023-03-12T19:26:37.413Z,6.10
2023-03-12T19:29:06.770Z,6.20
2023-03-12T19:31:34.856Z,6.10
2023-03-12T19:34:02.908Z,6.10
2023-03-12T19:36:30.904Z,6.10
2023-03-12T19:38:59.767Z,6.00
2023-03-12T19:41:27.720Z,6.10
2023-03-12T19:43:55.689Z,6.10
2023-03-12T19:46:24.928Z,6.10
2023-03-12T19:48:52.942Z,6.10
2023-03-12T19:51:20.903Z,5.90
2023-03-12T19:53:48.947Z,5.90
2023-03-12T19:56:18.569Z,5.90
2023-03-12T19:58:46.639Z,5.90
2023-03-12T20:01:14.550Z,5.80
2023-03-12T20:03:44.081Z,5.70
2023-03-12T20:06:12.343Z,5.70
2023-03-12T20:08:40.471Z,5.70
2023-03-12T20:11:09.520Z,5.50
2023-03-12T20:13:38.072Z,5.50
2023-03-12T20:16:06.887Z,5.50
2023-03-12T20:18:34.892Z,5.50
2023-03-12T20:21:04.480Z,5.50
2023-03-12T20:23:32.885Z,5.40
2023-03-12T20:26:00.884Z,5.40
2023-03-12T20:28:28.864Z,5.20
2023-03-12T20:30:56.876Z,5.20
2023-03-12T20:33:24.883Z,5.20
2023-03-12T20:35:53.020Z,5.20
2023-03-12T20:38:22.309Z,5.10
2023-03-12T20:40:50.316Z,5.10
2023-03-12T20:43:18.851Z,4.90
2023-03-12T20:45:48.765Z,5.00
2023-03-12T20:48:17.745Z,4.90
2023-03-12T20:50:45.759Z,4.90
2023-03-12T20:53:13.656Z,5.00
2023-03-12T20:55:43.006Z,5.10
2023-03-12T20:58:10.964Z,5.00
2023-03-12T21:00:38.932Z,5.10
2023-03-12T21:03:06.984Z,5.20
2023-03-12T21:05:34.919Z,5.20
2023-03-12T21:08:02.870Z,5.00
2023-03-12T21:10:31.717Z,5.00
2023-03-12T21:13:01.146Z,5.00
2023-03-12T21:15:29.104Z,4.90
2023-03-12T21:17:57.262Z,5.00
2023-03-12T21:20:25.701Z,5.00
2023-03-12T21:22:53.580Z,5.00
2023-03-12T21:25:21.720Z,4.90
2023-03-12T21:27:51.693Z,4.90
2023-03-12T21:30:21.499Z,5.00
2023-03-12T21:32:49.484Z,5.00
2023-03-12T21:35:17.735Z,5.10
2023-03-12T21:37:45.759Z,5.00
2023-03-12T21:40:14.483Z,5.00
2023-03-12T21:42:42.480Z,5.10
2023-03-12T21:45:11.711Z,5.00
2023-03-12T21:47:41.597Z,5.10
2023-03-12T21:50:10.788Z,5.10
2023-03-12T21:52:43.088Z,5.00
2023-03-12T21:55:11.890Z,5.00
2023-03-12T21:57:39.885Z,5.00
2023-03-12T22:00:12.502Z,5.00
2023-03-12T22:02:42.127Z,4.90
2023-03-12T22:05:10.537Z,5.00
2023-03-12T22:07:38.787Z,4.80
2023-03-12T22:10:11.646Z,4.90
2023-03-12T22:12:40.008Z,4.80
2023-03-12T22:15:09.312Z,4.90
2023-03-12T22:17:37.347Z,4.70
2023-03-12T22:20:08.388Z,4.80
2023-03-12T22:22:36.378Z,4.70
2023-03-12T22:25:04.628Z,4.90
2023-03-12T22:27:32.671Z,4.70
2023-03-12T22:30:00.588Z,4.70
2023-03-12T22:32:28.899Z,4.80
2023-03-12T22:34:57.286Z,4.80
2023-03-12T22:37:26.606Z,4.80
2023-03-12T22:39:58.223Z,4.80
2023-03-12T22:42:26.249Z,4.70
2023-03-12T22:44:54.154Z,4.80
2023-03-12T22:47:23.371Z,4.70
2023-03-12T22:49:52.824Z,4.70
2023-03-12T22:52:20.845Z,4.70
2023-03-12T22:54:50.916Z,4.70
2023-03-12T22:57:18.931Z,4.80
2023-03-12T22:59:48.269Z,4.70
2023-03-12T23:02:16.392Z,4.70
2023-03-12T23:04:44.529Z,4.70
2023-03-12T23:07:16.660Z,4.60
2023-03-12T23:09:45.794Z,4.70
2023-03-12T23:12:15.109Z,4.70
2023-03-12T23:14:43.100Z,4.60
2023-03-12T23:17:11.138Z,4.60
2023-03-12T23:19:39.086Z,4.60
2023-03-12T23:22:07.934Z,4.70
2023-03-12T23:24:36.060Z,4.80
2023-03-12T23:27:04.060Z,4.80
2023-03-12T23:29:33.594Z,4.80
2023-03-12T23:32:01.556Z,4.80
2023-03-12T23:34:29.555Z,4.70
2023-03-12T23:36:57.568Z,4.90
2023-03-12T23:39:25.607Z,4.80
2023-03-12T23:41:53.562Z,4.80
2023-03-12T23:44:21.465Z,4.80
2023-03-12T23:46:50.735Z,4.90
2023-03-12T23:49:18.643Z,4.70
2023-03-12T23:51:46.739Z,4.70
2023-03-12T23:54:15.901Z,4.80
2023-03-12T23:56:43.882Z,4.90
2023-03-12T23:59:11.866Z,4.90
